Faxon — 5IM631 — position and weather

sailwx.info

Track history (hours):
 
Tides and Currents Weather Stations Pressure Air Temp Water Temp Dewpoint Dewpoint Depression Visibility Wind Speed Wind Dir Waves Ship Positions

Faxon

Last reported at 2018-Jul-16 02:26 UTC. Time now 2018-Jul-16 02:42 UTC.
Position N 39°30' E 025°08'.

Length 175 m; draft 7.5 m.

Type: Tanker. MMSI: 677053000.

Date/timePositionNaut miles runAvg speedWind from/ knotsBaromVisibWave heightAir tempDewpointWater temp
2018-Jul-16 02:26N 39°30' E 025°08'33 9.8
2018-Jul-15 23:02N 39°51' E 025°42'110.7
2018-Jul-15 22:54N 39°51' E 025°43'510.7
2018-Jul-15 22:29N 39°54' E 025°48'510.4
2018-Jul-15 22:00N 39°57' E 025°54'242 4.7
2018-Jul-13 18:28N 43°20' E 028°49'5 9.4
2018-Jul-13 17:56N 43°25' E 028°49'4 9.3
2018-Jul-13 17:30N 43°29' E 028°48'5 9.3
2018-Jul-13 17:00N 43°34' E 028°47'5 9.4
2018-Jul-13 16:31N 43°39' E 028°47'5 9.5
2018-Jul-13 16:00N 43°43' E 028°47'5 9.3
2018-Jul-13 15:30N 43°48' E 028°46'5 9.2
2018-Jul-13 15:00N 43°53' E 028°45'5 9.0
2018-Jul-13 14:30N 43°57' E 028°44'9 9.0
2018-Jul-13 13:30N 44°06' E 028°42'3 6.6
2018-Jul-13 13:00N 44°09' E 028°39'1 1.7
2018-Jul-13 12:30N 44°08' E 028°39'0 0.0
2018-Jul-13 11:58N 44°08' E 028°39'0 0.0
2018-Jul-13 11:28N 44°08' E 028°39'0 0.0
2018-Jul-13 10:52N 44°08' E 028°39'0 0.0
2018-Jul-13 10:28N 44°08' E 028°39'0 0.0
2018-Jul-13 09:58N 44°08' E 028°39'0 0.0
2018-Jul-13 09:28N 44°08' E 028°39'0 0.0
2018-Jul-13 08:58N 44°08' E 028°39'0 0.0
2018-Jul-13 08:28N 44°08' E 028°39'0 0.0
2018-Jul-13 07:58N 44°08' E 028°39'0 0.0
2018-Jul-13 07:28N 44°08' E 028°39'0 0.0
2018-Jul-13 06:58N 44°08' E 028°39'0 0.0
2018-Jul-13 06:28N 44°08' E 028°39'0 0.0
2018-Jul-13 05:58N 44°08' E 028°39'0 0.0
2018-Jul-13 05:28N 44°08' E 028°39'0 0.0
2018-Jul-13 04:58N 44°08' E 028°39'0 0.0
2018-Jul-13 04:28N 44°08' E 028°39'0 0.0
2018-Jul-13 03:58N 44°08' E 028°39'0 0.0
2018-Jul-13 03:28N 44°08' E 028°39'0 0.0
2018-Jul-13 02:55N 44°08' E 028°39'0 0.0
2018-Jul-13 02:28N 44°08' E 028°39'0 0.0
2018-Jul-13 01:58N 44°08' E 028°39'0 0.0
2018-Jul-13 01:28N 44°08' E 028°39'0 0.0
2018-Jul-13 00:58N 44°08' E 028°39'0 0.0
2018-Jul-13 00:28N 44°08' E 028°39'0 0.0
2018-Jul-12 23:58N 44°08' E 028°39'0 0.0
2018-Jul-12 23:28N 44°08' E 028°39'0 0.0
2018-Jul-12 22:58N 44°08' E 028°39'0 0.0
2018-Jul-12 22:28N 44°08' E 028°39'0 0.0
2018-Jul-12 21:58N 44°08' E 028°39'0 0.0
2018-Jul-12 21:28N 44°08' E 028°39'0 0.0
2018-Jul-12 20:58N 44°08' E 028°39'0 0.0
2018-Jul-12 20:28N 44°08' E 028°39'0 0.0
2018-Jul-12 19:58N 44°08' E 028°39'0 0.0
2018-Jul-12 19:28N 44°08' E 028°39'0 0.0
2018-Jul-12 18:55N 44°08' E 028°39'0 0.0
2018-Jul-12 18:28N 44°08' E 028°39'0 0.0
2018-Jul-12 17:58N 44°08' E 028°39'0 0.0
2018-Jul-12 17:28N 44°08' E 028°39'0 0.0
2018-Jul-12 16:58N 44°08' E 028°39'0 0.0
2018-Jul-12 16:28N 44°08' E 028°39'0 0.0
2018-Jul-12 15:58N 44°08' E 028°39'0 0.0
2018-Jul-12 15:28N 44°08' E 028°39'0 0.0
2018-Jul-12 14:58N 44°08' E 028°39'0 0.0
2018-Jul-12 14:28N 44°08' E 028°39'0 0.0
2018-Jul-12 13:58N 44°08' E 028°39'0 0.0
2018-Jul-12 13:28N 44°08' E 028°39'0 0.0
2018-Jul-12 12:58N 44°08' E 028°39'0 0.0
2018-Jul-12 12:28N 44°08' E 028°39'0 0.0
2018-Jul-12 11:58N 44°08' E 028°39'0 0.0
2018-Jul-12 11:28N 44°08' E 028°39'0 0.0
2018-Jul-12 10:58N 44°08' E 028°39'0 0.0
2018-Jul-12 10:28N 44°08' E 028°39'0 0.0
2018-Jul-12 09:58N 44°08' E 028°39'0 0.0
2018-Jul-12 09:28N 44°08' E 028°39'0 0.0
2018-Jul-12 08:58N 44°08' E 028°39'0 0.0
2018-Jul-12 08:28N 44°08' E 028°39'0 0.0
2018-Jul-12 07:58N 44°08' E 028°39'0 0.0
2018-Jul-12 07:28N 44°08' E 028°39'0 0.0
2018-Jul-12 06:58N 44°08' E 028°39'0 0.0
2018-Jul-12 06:28N 44°08' E 028°39'0 0.0
2018-Jul-12 05:58N 44°08' E 028°39'0 0.0
2018-Jul-12 05:28N 44°08' E 028°39'0 0.0
2018-Jul-12 04:58N 44°08' E 028°39'0 0.0
2018-Jul-12 04:28N 44°08' E 028°39'0 0.0
2018-Jul-12 03:58N 44°08' E 028°39'0 0.0
2018-Jul-12 03:28N 44°08' E 028°39'0 0.0
2018-Jul-12 02:58N 44°08' E 028°39'0 0.0
2018-Jul-12 02:28N 44°08' E 028°39'0 0.0
2018-Jul-12 01:58N 44°08' E 028°39'0 0.0
2018-Jul-12 01:28N 44°08' E 028°39'0 0.0
2018-Jul-12 00:58N 44°08' E 028°39'0 0.0
2018-Jul-12 00:28N 44°08' E 028°39'0 0.0
2018-Jul-11 23:58N 44°08' E 028°39'0 0.0
2018-Jul-11 23:28N 44°08' E 028°39'0 0.0
2018-Jul-11 22:58N 44°08' E 028°39'0 0.0
2018-Jul-11 22:28N 44°08' E 028°39'0 0.0
2018-Jul-11 21:58N 44°08' E 028°39'0 0.0
2018-Jul-11 21:28N 44°08' E 028°39'0 0.0
2018-Jul-11 20:58N 44°08' E 028°39'0 0.0
2018-Jul-11 20:28N 44°08' E 028°39'0 0.0
2018-Jul-11 19:58N 44°08' E 028°39'0 0.0
2018-Jul-11 19:28N 44°08' E 028°39'0 0.0
2018-Jul-11 18:58N 44°08' E 028°39'0 0.0
2018-Jul-11 18:28N 44°08' E 028°39'0 0.0
2018-Jul-11 17:58N 44°08' E 028°39'0 0.0
2018-Jul-11 17:22N 44°08' E 028°39'0 0.0
2018-Jul-11 16:58N 44°08' E 028°39'0 0.0
2018-Jul-11 16:28N 44°08' E 028°39'0 0.0
2018-Jul-11 15:58N 44°08' E 028°39'0 0.0
2018-Jul-11 15:28N 44°08' E 028°39'0 0.0
2018-Jul-11 14:58N 44°08' E 028°39'0 0.0
2018-Jul-11 14:28N 44°08' E 028°39'0 0.1
2018-Jul-11 13:58N 44°08' E 028°39'0 0.0
2018-Jul-11 13:28N 44°08' E 028°39'0 0.0
2018-Jul-11 12:55N 44°08' E 028°39'0 0.0
2018-Jul-11 12:28N 44°08' E 028°39'0 0.0
2018-Jul-11 11:58N 44°08' E 028°39'0 0.0
2018-Jul-11 11:28N 44°08' E 028°39'0 0.0
2018-Jul-11 10:58N 44°08' E 028°39'0 0.0
2018-Jul-11 10:28N 44°08' E 028°39'0 0.0
2018-Jul-11 09:58N 44°08' E 028°39'0 0.0
2018-Jul-11 09:28N 44°08' E 028°39'0 0.0
2018-Jul-11 08:58N 44°08' E 028°39'0 0.0
2018-Jul-11 08:28N 44°08' E 028°39'0 0.0
2018-Jul-11 07:58N 44°08' E 028°39'0 0.0
2018-Jul-11 07:28N 44°08' E 028°39'0 0.0
2018-Jul-11 06:58N 44°08' E 028°39'0 0.0
2018-Jul-11 06:28N 44°08' E 028°39'0 0.0
2018-Jul-11 05:58N 44°08' E 028°39'0 0.0
2018-Jul-11 05:28N 44°08' E 028°39'0 0.0
2018-Jul-11 04:58N 44°08' E 028°39'0 0.0
2018-Jul-11 04:28N 44°08' E 028°39'0 0.0
2018-Jul-11 03:58N 44°08' E 028°39'0 0.0
2018-Jul-11 03:28N 44°08' E 028°39'0 0.0
2018-Jul-11 02:58N 44°08' E 028°39'0 0.0
2018-Jul-11 02:28N 44°08' E 028°39'0 0.0
2018-Jul-11 01:58N 44°08' E 028°39'0 0.0
2018-Jul-11 01:25N 44°08' E 028°39'0 0.0
2018-Jul-11 00:58N 44°08' E 028°39'0 0.0
2018-Jul-11 00:28N 44°08' E 028°39'0 0.0
2018-Jul-10 23:58N 44°08' E 028°39'0 0.0
2018-Jul-10 23:28N 44°08' E 028°39'0 0.0
2018-Jul-10 22:58N 44°08' E 028°39'0 0.0
2018-Jul-10 22:28N 44°08' E 028°39'0 0.0
2018-Jul-10 21:58N 44°08' E 028°39'0 0.0
2018-Jul-10 21:28N 44°08' E 028°39'0 0.0
2018-Jul-10 20:58N 44°08' E 028°39'0 0.0
2018-Jul-10 20:28N 44°08' E 028°39'0 0.0
2018-Jul-10 19:58N 44°08' E 028°39'0 0.0
2018-Jul-10 19:28N 44°08' E 028°39'0 0.0
2018-Jul-10 18:55N 44°08' E 028°39'0 0.0
2018-Jul-10 18:28N 44°08' E 028°39'0 0.0
2018-Jul-10 17:58N 44°08' E 028°39'0 0.0
2018-Jul-10 17:28N 44°08' E 028°39'0 0.0
2018-Jul-10 16:58N 44°08' E 028°39'0 0.0
2018-Jul-10 16:28N 44°08' E 028°39'0 0.0
2018-Jul-10 15:58N 44°08' E 028°39'0 0.0
2018-Jul-10 15:28N 44°08' E 028°39'0 0.0
2018-Jul-10 14:58N 44°08' E 028°39'0 0.0
2018-Jul-10 14:28N 44°08' E 028°39'0 0.0
2018-Jul-10 13:58N 44°08' E 028°39'0 0.0
2018-Jul-10 13:28N 44°08' E 028°39'0 0.0
2018-Jul-10 12:58N 44°08' E 028°39'0 0.0
2018-Jul-10 12:28N 44°08' E 028°39'0 0.0
2018-Jul-10 11:58N 44°08' E 028°39'0 0.0
2018-Jul-10 11:28N 44°08' E 028°39'0 0.0
2018-Jul-10 10:58N 44°08' E 028°39'0 0.0
2018-Jul-10 10:28N 44°08' E 028°39'0 0.0
2018-Jul-10 09:58N 44°08' E 028°39'0 0.0
2018-Jul-10 09:28N 44°08' E 028°39'0 0.0
2018-Jul-10 08:58N 44°08' E 028°39'0 0.0
2018-Jul-10 08:28N 44°08' E 028°39'0 0.0
2018-Jul-10 07:58N 44°08' E 028°39'0 0.0
2018-Jul-10 07:28N 44°08' E 028°39'0 0.0
2018-Jul-10 06:58N 44°08' E 028°39'0 0.0
2018-Jul-10 06:28N 44°08' E 028°39'0 0.0
2018-Jul-10 05:58N 44°08' E 028°39'0 0.0
2018-Jul-10 05:28N 44°08' E 028°39'0 0.0
2018-Jul-10 04:58N 44°08' E 028°39'0 0.0
2018-Jul-10 04:28N 44°08' E 028°39'0 0.0
2018-Jul-10 03:58N 44°08' E 028°39'0 0.0
2018-Jul-10 03:28N 44°08' E 028°39'0 0.0
2018-Jul-10 02:58N 44°08' E 028°39'0 0.0
2018-Jul-10 02:28N 44°08' E 028°39'0 0.0
2018-Jul-10 01:58N 44°08' E 028°39'0 0.0
2018-Jul-10 01:28N 44°08' E 028°39'0 0.0
2018-Jul-10 00:58N 44°08' E 028°39'0 0.0
2018-Jul-10 00:28N 44°08' E 028°39'0 0.0
2018-Jul-09 23:58N 44°08' E 028°39'0 0.0
2018-Jul-09 23:28N 44°08' E 028°39'0 0.0
2018-Jul-09 22:58N 44°08' E 028°39'0 0.0
2018-Jul-09 22:28N 44°08' E 028°39'0 0.0
2018-Jul-09 21:58N 44°08' E 028°39'0 0.0
2018-Jul-09 21:28N 44°08' E 028°39'0 0.0
2018-Jul-09 20:58N 44°08' E 028°39'0 0.0
2018-Jul-09 20:28N 44°08' E 028°39'0 0.0
2018-Jul-09 19:58N 44°08' E 028°39'0 0.0
2018-Jul-09 19:28N 44°08' E 028°39'0 0.0
2018-Jul-09 18:58N 44°08' E 028°39'0 0.0
2018-Jul-09 18:28N 44°08' E 028°39'0 0.0
2018-Jul-09 17:58N 44°08' E 028°39'0 0.0
2018-Jul-09 17:28N 44°08' E 028°39'0 0.0
2018-Jul-09 16:58N 44°08' E 028°39'0 0.0
2018-Jul-09 16:28N 44°08' E 028°39'0 0.0
2018-Jul-09 15:58N 44°08' E 028°39'0 0.0
2018-Jul-09 15:28N 44°08' E 028°39'0 0.0
2018-Jul-09 14:58N 44°08' E 028°39'0 0.0
2018-Jul-09 14:28N 44°08' E 028°39'0 0.0
2018-Jul-09 13:58N 44°08' E 028°39'0 0.0
2018-Jul-09 13:28N 44°08' E 028°39'0 0.0
2018-Jul-09 12:58N 44°08' E 028°39'0 0.0
2018-Jul-09 12:28N 44°08' E 028°39'0 0.0
2018-Jul-09 11:58N 44°08' E 028°39'0 0.0
2018-Jul-09 11:28N 44°08' E 028°39'0 0.0
2018-Jul-09 10:58N 44°08' E 028°39'0 0.0
2018-Jul-09 10:28N 44°08' E 028°39'0 0.0
2018-Jul-09 09:58N 44°08' E 028°39'0 0.0
2018-Jul-09 09:28N 44°08' E 028°39'0 0.0
2018-Jul-09 08:58N 44°08' E 028°39'0 0.0
2018-Jul-09 08:28N 44°08' E 028°39'0 0.0
2018-Jul-09 07:58N 44°08' E 028°39'0 0.0
2018-Jul-09 07:28N 44°08' E 028°39'0 0.0
2018-Jul-09 06:58N 44°08' E 028°39'0 0.0
2018-Jul-09 06:28N 44°08' E 028°39'0 0.0
2018-Jul-09 05:58N 44°08' E 028°39'0 0.0
2018-Jul-09 05:28N 44°08' E 028°39'0 0.0
2018-Jul-09 04:58N 44°08' E 028°39'0 0.0
2018-Jul-09 04:28N 44°08' E 028°39'0 0.0
2018-Jul-09 03:58N 44°08' E 028°39'0 0.0
2018-Jul-09 03:28N 44°08' E 028°39'0 0.0
2018-Jul-09 02:58N 44°08' E 028°39'0 0.0
2018-Jul-09 02:28N 44°08' E 028°39'0 0.0
2018-Jul-09 01:58N 44°08' E 028°39'0 0.0
2018-Jul-09 01:28N 44°08' E 028°39'0 0.0
2018-Jul-09 00:58N 44°08' E 028°39'0 0.0
2018-Jul-09 00:28N 44°08' E 028°39'0 0.0
2018-Jul-08 23:58N 44°08' E 028°39'0 0.0
2018-Jul-08 23:28N 44°08' E 028°39'0 0.0
2018-Jul-08 22:58N 44°08' E 028°39'0 0.0
2018-Jul-08 22:28N 44°08' E 028°39'0 0.0
2018-Jul-08 21:52N 44°08' E 028°39'0 0.0
2018-Jul-08 21:28N 44°08' E 028°39'0 0.0
2018-Jul-08 20:58N 44°08' E 028°39'0 0.0
2018-Jul-08 20:28N 44°08' E 028°39'0 0.0
2018-Jul-08 19:58N 44°08' E 028°39'0 0.0
2018-Jul-08 19:28N 44°08' E 028°39'0 0.0
2018-Jul-08 18:58N 44°08' E 028°39'0 0.0
2018-Jul-08 18:28N 44°08' E 028°39'0 0.0
2018-Jul-08 17:58N 44°08' E 028°39'0 0.0
2018-Jul-08 17:25N 44°08' E 028°39'0 0.0
2018-Jul-08 16:58N 44°08' E 028°39'0 0.0
2018-Jul-08 16:28N 44°08' E 028°39'0 0.0
2018-Jul-08 15:58N 44°08' E 028°39'0 0.0
2018-Jul-08 15:28N 44°08' E 028°39'0 0.0
2018-Jul-08 14:58N 44°08' E 028°39'0 0.0
2018-Jul-08 14:28N 44°08' E 028°39'0 0.0
2018-Jul-08 13:58N 44°08' E 028°39'0 0.0
2018-Jul-08 13:28N 44°08' E 028°39'0 0.0
2018-Jul-08 12:58N 44°08' E 028°39'0 0.0
2018-Jul-08 12:28N 44°08' E 028°39'0 0.0
2018-Jul-08 11:58N 44°08' E 028°39'0 0.0
2018-Jul-08 11:28N 44°08' E 028°39'0 0.0
2018-Jul-08 10:58N 44°08' E 028°39'0 0.0
2018-Jul-08 10:28N 44°08' E 028°39'0 0.0
2018-Jul-08 09:58N 44°08' E 028°39'0 0.0
2018-Jul-08 09:28N 44°08' E 028°39'0 0.0
2018-Jul-08 08:58N 44°08' E 028°39'0 0.0
2018-Jul-08 08:28N 44°08' E 028°39'0 0.0
2018-Jul-08 07:58N 44°08' E 028°39'0 0.0
2018-Jul-08 07:28N 44°08' E 028°39'0 0.0
2018-Jul-08 06:58N 44°08' E 028°39'0 0.0
2018-Jul-08 06:28N 44°08' E 028°39'0 0.0
2018-Jul-08 05:58N 44°08' E 028°39'0 0.0
2018-Jul-08 05:28N 44°08' E 028°39'0 0.0
2018-Jul-08 04:58N 44°08' E 028°39'0 0.0
2018-Jul-08 04:28N 44°08' E 028°39'0 0.0
2018-Jul-08 03:58N 44°08' E 028°39'0 0.0
2018-Jul-08 03:28N 44°08' E 028°39'0 0.0
2018-Jul-08 02:58N 44°08' E 028°39'0 0.0
2018-Jul-08 02:28N 44°08' E 028°39'0 0.0
2018-Jul-08 01:55N 44°08' E 028°39'0 0.0
2018-Jul-08 01:28N 44°08' E 028°39'0 0.0
2018-Jul-08 00:58N 44°08' E 028°39'0 0.0
2018-Jul-08 00:28N 44°08' E 028°39'0 0.0
2018-Jul-07 23:58N 44°08' E 028°39'0 0.0
2018-Jul-07 23:28N 44°08' E 028°39'0 0.0
2018-Jul-07 22:58N 44°08' E 028°39'0 0.0
2018-Jul-07 22:28N 44°08' E 028°39'0 0.0
2018-Jul-07 21:58N 44°08' E 028°39'0 0.0
2018-Jul-07 21:28N 44°08' E 028°39'0 0.0
2018-Jul-07 20:58N 44°08' E 028°39'0 0.0
2018-Jul-07 20:28N 44°08' E 028°39'0 0.0
2018-Jul-07 19:58N 44°08' E 028°39'0 0.0
2018-Jul-07 19:28N 44°08' E 028°39'0 0.0
2018-Jul-07 18:58N 44°08' E 028°39'0 0.0
2018-Jul-07 18:28N 44°08' E 028°39'0 0.0
2018-Jul-07 17:58N 44°08' E 028°39'0 0.0
2018-Jul-07 17:28N 44°08' E 028°39'0 0.0
2018-Jul-07 16:59N 44°08' E 028°39'0 0.0
2018-Jul-07 16:28N 44°08' E 028°39'0 0.0
2018-Jul-07 15:58N 44°08' E 028°39'0 0.0
2018-Jul-07 15:28N 44°08' E 028°39'0 0.0
2018-Jul-07 14:58N 44°08' E 028°39'0 0.0
2018-Jul-07 14:28N 44°08' E 028°39'0 0.1
2018-Jul-07 13:58N 44°08' E 028°39'0 0.0
2018-Jul-07 13:28N 44°08' E 028°39'0 0.0
2018-Jul-07 12:58N 44°08' E 028°39'0 0.0
2018-Jul-07 12:25N 44°08' E 028°39'0 0.0
2018-Jul-07 11:58N 44°08' E 028°39'0 0.0
2018-Jul-07 11:28N 44°08' E 028°39'0 0.0
2018-Jul-07 10:58N 44°08' E 028°39'0 0.0
2018-Jul-07 10:28N 44°08' E 028°39'0 0.0
2018-Jul-07 09:58N 44°08' E 028°39'0 0.0
2018-Jul-07 09:28N 44°08' E 028°39'0 0.0
2018-Jul-07 08:58N 44°08' E 028°39'0 0.0
2018-Jul-07 08:28N 44°08' E 028°39'0 0.0
2018-Jul-07 07:58N 44°08' E 028°39'0 0.0
2018-Jul-07 07:28N 44°08' E 028°39'0 0.0
2018-Jul-07 06:58N 44°08' E 028°39'0 0.0
2018-Jul-07 06:28N 44°08' E 028°39'0 0.0
2018-Jul-07 05:58N 44°08' E 028°39'0 0.0
2018-Jul-07 05:19N 44°08' E 028°39'0 0.0
2018-Jul-07 04:58N 44°08' E 028°39'0 0.0
2018-Jul-07 04:28N 44°08' E 028°39'0 0.0
2018-Jul-07 03:58N 44°08' E 028°39'0 0.0
2018-Jul-07 03:28N 44°08' E 028°39'0 0.0
2018-Jul-07 02:58N 44°08' E 028°39'0 0.0
2018-Jul-07 02:28N 44°08' E 028°39'0 0.0
2018-Jul-07 01:58N 44°08' E 028°39'0 0.0
2018-Jul-07 01:28N 44°08' E 028°39'0 0.0
2018-Jul-07 00:58N 44°08' E 028°39'0 0.0
2018-Jul-07 00:28N 44°08' E 028°39'0 0.0
2018-Jul-06 23:58N 44°08' E 028°39'0 0.0
2018-Jul-06 23:25N 44°08' E 028°39'0 0.0
2018-Jul-06 22:58N 44°08' E 028°39'0 0.0
2018-Jul-06 22:28N 44°08' E 028°39'0 0.0
2018-Jul-06 21:58N 44°08' E 028°39'0 0.0
2018-Jul-06 21:28N 44°08' E 028°39'0 0.0
2018-Jul-06 20:58N 44°08' E 028°39'0 0.0
2018-Jul-06 20:28N 44°08' E 028°39'0 0.0
2018-Jul-06 19:58N 44°08' E 028°39'0 0.0
2018-Jul-06 19:28N 44°08' E 028°39'0 0.0
2018-Jul-06 18:58N 44°08' E 028°39'0 0.0
2018-Jul-06 18:28N 44°08' E 028°39'0 0.0
2018-Jul-06 17:58N 44°08' E 028°39'0 0.0
2018-Jul-06 17:28N 44°08' E 028°39'0 0.0
2018-Jul-06 16:58N 44°08' E 028°39'0 0.0
2018-Jul-06 16:25N 44°08' E 028°39'0 0.0
2018-Jul-06 15:59N 44°08' E 028°39'0 0.0
2018-Jul-06 15:28N 44°08' E 028°39'0 0.0
2018-Jul-06 14:58N 44°08' E 028°39'0 0.0
2018-Jul-06 14:28N 44°08' E 028°39'0 0.0
2018-Jul-06 13:58N 44°08' E 028°39'0 0.0
2018-Jul-06 13:28N 44°08' E 028°39'0 0.1
2018-Jul-06 12:58N 44°08' E 028°39'0 0.0
2018-Jul-06 12:28N 44°08' E 028°39'0 0.0
2018-Jul-06 11:58N 44°08' E 028°39'0 0.0
2018-Jul-06 11:28N 44°08' E 028°39'0 0.0
2018-Jul-06 10:58N 44°08' E 028°39'0 0.0
2018-Jul-06 10:28N 44°08' E 028°39'0 0.0
2018-Jul-06 09:58N 44°08' E 028°39'0 0.0
2018-Jul-06 09:28N 44°08' E 028°39'0 0.0
2018-Jul-06 08:58N 44°08' E 028°39'0 0.0
2018-Jul-06 08:28N 44°08' E 028°39'0 0.0
2018-Jul-06 07:58N 44°08' E 028°39'0 0.0
2018-Jul-06 07:28N 44°08' E 028°39'0 0.0
2018-Jul-06 06:58N 44°08' E 028°39'0 0.0
2018-Jul-06 06:28N 44°08' E 028°39'0 0.0
2018-Jul-06 05:58N 44°08' E 028°39'0 0.0
2018-Jul-06 05:28N 44°08' E 028°39'0 0.0
2018-Jul-06 04:58N 44°08' E 028°39'0 0.0
2018-Jul-06 04:28N 44°08' E 028°39'0 0.0
2018-Jul-06 03:58N 44°08' E 028°39'0 0.0
2018-Jul-06 03:28N 44°08' E 028°39'0 0.0
2018-Jul-06 02:58N 44°08' E 028°39'0 0.0
2018-Jul-06 02:28N 44°08' E 028°39'  
Track history (hours):
 
Tides and Currents Weather Stations Pressure Air Temp Water Temp Dewpoint Dewpoint Depression Visibility Wind Speed Wind Dir Waves Ship Positions

Faxon

Last reported at 2018-Jul-16 02:26 UTC. Time now 2018-Jul-16 02:42 UTC.
Position N 39°30' E 025°08'.

Length 175 m; draft 7.5 m.

Type: Tanker. MMSI: 677053000.

Date/timePositionNaut miles runAvg speedWind from/ knotsBaromVisibWave heightAir tempDewpointWater temp
2018-Jul-16 02:26N 39°30' E 025°08'33 9.8
2018-Jul-15 23:02N 39°51' E 025°42'110.7
2018-Jul-15 22:54N 39°51' E 025°43'510.7
2018-Jul-15 22:29N 39°54' E 025°48'510.4
2018-Jul-15 22:00N 39°57' E 025°54'242 4.7
2018-Jul-13 18:28N 43°20' E 028°49'5 9.4
2018-Jul-13 17:56N 43°25' E 028°49'4 9.3
2018-Jul-13 17:30N 43°29' E 028°48'5 9.3
2018-Jul-13 17:00N 43°34' E 028°47'5 9.4
2018-Jul-13 16:31N 43°39' E 028°47'5 9.5
2018-Jul-13 16:00N 43°43' E 028°47'5 9.3
2018-Jul-13 15:30N 43°48' E 028°46'5 9.2
2018-Jul-13 15:00N 43°53' E 028°45'5 9.0
2018-Jul-13 14:30N 43°57' E 028°44'9 9.0
2018-Jul-13 13:30N 44°06' E 028°42'3 6.6
2018-Jul-13 13:00N 44°09' E 028°39'1 1.7
2018-Jul-13 12:30N 44°08' E 028°39'0 0.0
2018-Jul-13 11:58N 44°08' E 028°39'0 0.0
2018-Jul-13 11:28N 44°08' E 028°39'0 0.0
2018-Jul-13 10:52N 44°08' E 028°39'0 0.0
2018-Jul-13 10:28N 44°08' E 028°39'0 0.0
2018-Jul-13 09:58N 44°08' E 028°39'0 0.0
2018-Jul-13 09:28N 44°08' E 028°39'0 0.0
2018-Jul-13 08:58N 44°08' E 028°39'0 0.0
2018-Jul-13 08:28N 44°08' E 028°39'0 0.0
2018-Jul-13 07:58N 44°08' E 028°39'0 0.0
2018-Jul-13 07:28N 44°08' E 028°39'0 0.0
2018-Jul-13 06:58N 44°08' E 028°39'0 0.0
2018-Jul-13 06:28N 44°08' E 028°39'0 0.0
2018-Jul-13 05:58N 44°08' E 028°39'0 0.0
2018-Jul-13 05:28N 44°08' E 028°39'0 0.0
2018-Jul-13 04:58N 44°08' E 028°39'0 0.0
2018-Jul-13 04:28N 44°08' E 028°39'0 0.0
2018-Jul-13 03:58N 44°08' E 028°39'0 0.0
2018-Jul-13 03:28N 44°08' E 028°39'0 0.0
2018-Jul-13 02:55N 44°08' E 028°39'0 0.0
2018-Jul-13 02:28N 44°08' E 028°39'0 0.0
2018-Jul-13 01:58N 44°08' E 028°39'0 0.0
2018-Jul-13 01:28N 44°08' E 028°39'0 0.0
2018-Jul-13 00:58N 44°08' E 028°39'0 0.0
2018-Jul-13 00:28N 44°08' E 028°39'0 0.0
2018-Jul-12 23:58N 44°08' E 028°39'0 0.0
2018-Jul-12 23:28N 44°08' E 028°39'0 0.0
2018-Jul-12 22:58N 44°08' E 028°39'0 0.0
2018-Jul-12 22:28N 44°08' E 028°39'0 0.0
2018-Jul-12 21:58N 44°08' E 028°39'0 0.0
2018-Jul-12 21:28N 44°08' E 028°39'0 0.0
2018-Jul-12 20:58N 44°08' E 028°39'0 0.0
2018-Jul-12 20:28N 44°08' E 028°39'0 0.0
2018-Jul-12 19:58N 44°08' E 028°39'0 0.0
2018-Jul-12 19:28N 44°08' E 028°39'0 0.0
2018-Jul-12 18:55N 44°08' E 028°39'0 0.0
2018-Jul-12 18:28N 44°08' E 028°39'0 0.0
2018-Jul-12 17:58N 44°08' E 028°39'0 0.0
2018-Jul-12 17:28N 44°08' E 028°39'0 0.0
2018-Jul-12 16:58N 44°08' E 028°39'0 0.0
2018-Jul-12 16:28N 44°08' E 028°39'0 0.0
2018-Jul-12 15:58N 44°08' E 028°39'0 0.0
2018-Jul-12 15:28N 44°08' E 028°39'0 0.0
2018-Jul-12 14:58N 44°08' E 028°39'0 0.0
2018-Jul-12 14:28N 44°08' E 028°39'0 0.0
2018-Jul-12 13:58N 44°08' E 028°39'0 0.0
2018-Jul-12 13:28N 44°08' E 028°39'0 0.0
2018-Jul-12 12:58N 44°08' E 028°39'0 0.0
2018-Jul-12 12:28N 44°08' E 028°39'0 0.0
2018-Jul-12 11:58N 44°08' E 028°39'0 0.0
2018-Jul-12 11:28N 44°08' E 028°39'0 0.0
2018-Jul-12 10:58N 44°08' E 028°39'0 0.0
2018-Jul-12 10:28N 44°08' E 028°39'0 0.0
2018-Jul-12 09:58N 44°08' E 028°39'0 0.0
2018-Jul-12 09:28N 44°08' E 028°39'0 0.0
2018-Jul-12 08:58N 44°08' E 028°39'0 0.0
2018-Jul-12 08:28N 44°08' E 028°39'0 0.0
2018-Jul-12 07:58N 44°08' E 028°39'0 0.0
2018-Jul-12 07:28N 44°08' E 028°39'0 0.0
2018-Jul-12 06:58N 44°08' E 028°39'0 0.0
2018-Jul-12 06:28N 44°08' E 028°39'0 0.0
2018-Jul-12 05:58N 44°08' E 028°39'0 0.0
2018-Jul-12 05:28N 44°08' E 028°39'0 0.0
2018-Jul-12 04:58N 44°08' E 028°39'0 0.0
2018-Jul-12 04:28N 44°08' E 028°39'0 0.0
2018-Jul-12 03:58N 44°08' E 028°39'0 0.0
2018-Jul-12 03:28N 44°08' E 028°39'0 0.0
2018-Jul-12 02:58N 44°08' E 028°39'0 0.0
2018-Jul-12 02:28N 44°08' E 028°39'0 0.0
2018-Jul-12 01:58N 44°08' E 028°39'0 0.0
2018-Jul-12 01:28N 44°08' E 028°39'0 0.0
2018-Jul-12 00:58N 44°08' E 028°39'0 0.0
2018-Jul-12 00:28N 44°08' E 028°39'0 0.0
2018-Jul-11 23:58N 44°08' E 028°39'0 0.0
2018-Jul-11 23:28N 44°08' E 028°39'0 0.0
2018-Jul-11 22:58N 44°08' E 028°39'0 0.0
2018-Jul-11 22:28N 44°08' E 028°39'0 0.0
2018-Jul-11 21:58N 44°08' E 028°39'0 0.0
2018-Jul-11 21:28N 44°08' E 028°39'0 0.0
2018-Jul-11 20:58N 44°08' E 028°39'0 0.0
2018-Jul-11 20:28N 44°08' E 028°39'0 0.0
2018-Jul-11 19:58N 44°08' E 028°39'0 0.0
2018-Jul-11 19:28N 44°08' E 028°39'0 0.0
2018-Jul-11 18:58N 44°08' E 028°39'0 0.0
2018-Jul-11 18:28N 44°08' E 028°39'0 0.0
2018-Jul-11 17:58N 44°08' E 028°39'0 0.0
2018-Jul-11 17:22N 44°08' E 028°39'0 0.0
2018-Jul-11 16:58N 44°08' E 028°39'0 0.0
2018-Jul-11 16:28N 44°08' E 028°39'0 0.0
2018-Jul-11 15:58N 44°08' E 028°39'0 0.0
2018-Jul-11 15:28N 44°08' E 028°39'0 0.0
2018-Jul-11 14:58N 44°08' E 028°39'0 0.0
2018-Jul-11 14:28N 44°08' E 028°39'0 0.1
2018-Jul-11 13:58N 44°08' E 028°39'0 0.0
2018-Jul-11 13:28N 44°08' E 028°39'0 0.0
2018-Jul-11 12:55N 44°08' E 028°39'0 0.0
2018-Jul-11 12:28N 44°08' E 028°39'0 0.0
2018-Jul-11 11:58N 44°08' E 028°39'0 0.0
2018-Jul-11 11:28N 44°08' E 028°39'0 0.0
2018-Jul-11 10:58N 44°08' E 028°39'0 0.0
2018-Jul-11 10:28N 44°08' E 028°39'0 0.0
2018-Jul-11 09:58N 44°08' E 028°39'0 0.0
2018-Jul-11 09:28N 44°08' E 028°39'0 0.0
2018-Jul-11 08:58N 44°08' E 028°39'0 0.0
2018-Jul-11 08:28N 44°08' E 028°39'0 0.0
2018-Jul-11 07:58N 44°08' E 028°39'0 0.0
2018-Jul-11 07:28N 44°08' E 028°39'0 0.0
2018-Jul-11 06:58N 44°08' E 028°39'0 0.0
2018-Jul-11 06:28N 44°08' E 028°39'0 0.0
2018-Jul-11 05:58N 44°08' E 028°39'0 0.0
2018-Jul-11 05:28N 44°08' E 028°39'0 0.0
2018-Jul-11 04:58N 44°08' E 028°39'0 0.0
2018-Jul-11 04:28N 44°08' E 028°39'0 0.0
2018-Jul-11 03:58N 44°08' E 028°39'0 0.0
2018-Jul-11 03:28N 44°08' E 028°39'0 0.0
2018-Jul-11 02:58N 44°08' E 028°39'0 0.0
2018-Jul-11 02:28N 44°08' E 028°39'0 0.0
2018-Jul-11 01:58N 44°08' E 028°39'0 0.0
2018-Jul-11 01:25N 44°08' E 028°39'0 0.0
2018-Jul-11 00:58N 44°08' E 028°39'0 0.0
2018-Jul-11 00:28N 44°08' E 028°39'0 0.0
2018-Jul-10 23:58N 44°08' E 028°39'0 0.0
2018-Jul-10 23:28N 44°08' E 028°39'0 0.0
2018-Jul-10 22:58N 44°08' E 028°39'0 0.0
2018-Jul-10 22:28N 44°08' E 028°39'0 0.0
2018-Jul-10 21:58N 44°08' E 028°39'0 0.0
2018-Jul-10 21:28N 44°08' E 028°39'0 0.0
2018-Jul-10 20:58N 44°08' E 028°39'0 0.0
2018-Jul-10 20:28N 44°08' E 028°39'0 0.0
2018-Jul-10 19:58N 44°08' E 028°39'0 0.0
2018-Jul-10 19:28N 44°08' E 028°39'0 0.0
2018-Jul-10 18:55N 44°08' E 028°39'0 0.0
2018-Jul-10 18:28N 44°08' E 028°39'0 0.0
2018-Jul-10 17:58N 44°08' E 028°39'0 0.0
2018-Jul-10 17:28N 44°08' E 028°39'0 0.0
2018-Jul-10 16:58N 44°08' E 028°39'0 0.0
2018-Jul-10 16:28N 44°08' E 028°39'0 0.0
2018-Jul-10 15:58N 44°08' E 028°39'0 0.0
2018-Jul-10 15:28N 44°08' E 028°39'0 0.0
2018-Jul-10 14:58N 44°08' E 028°39'0 0.0
2018-Jul-10 14:28N 44°08' E 028°39'0 0.0
2018-Jul-10 13:58N 44°08' E 028°39'0 0.0
2018-Jul-10 13:28N 44°08' E 028°39'0 0.0
2018-Jul-10 12:58N 44°08' E 028°39'0 0.0
2018-Jul-10 12:28N 44°08' E 028°39'0 0.0
2018-Jul-10 11:58N 44°08' E 028°39'0 0.0
2018-Jul-10 11:28N 44°08' E 028°39'0 0.0
2018-Jul-10 10:58N 44°08' E 028°39'0 0.0
2018-Jul-10 10:28N 44°08' E 028°39'0 0.0
2018-Jul-10 09:58N 44°08' E 028°39'0 0.0
2018-Jul-10 09:28N 44°08' E 028°39'0 0.0
2018-Jul-10 08:58N 44°08' E 028°39'0 0.0
2018-Jul-10 08:28N 44°08' E 028°39'0 0.0
2018-Jul-10 07:58N 44°08' E 028°39'0 0.0
2018-Jul-10 07:28N 44°08' E 028°39'0 0.0
2018-Jul-10 06:58N 44°08' E 028°39'0 0.0
2018-Jul-10 06:28N 44°08' E 028°39'0 0.0
2018-Jul-10 05:58N 44°08' E 028°39'0 0.0
2018-Jul-10 05:28N 44°08' E 028°39'0 0.0
2018-Jul-10 04:58N 44°08' E 028°39'0 0.0
2018-Jul-10 04:28N 44°08' E 028°39'0 0.0
2018-Jul-10 03:58N 44°08' E 028°39'0 0.0
2018-Jul-10 03:28N 44°08' E 028°39'0 0.0
2018-Jul-10 02:58N 44°08' E 028°39'0 0.0
2018-Jul-10 02:28N 44°08' E 028°39'0 0.0
2018-Jul-10 01:58N 44°08' E 028°39'0 0.0
2018-Jul-10 01:28N 44°08' E 028°39'0 0.0
2018-Jul-10 00:58N 44°08' E 028°39'0 0.0
2018-Jul-10 00:28N 44°08' E 028°39'0 0.0
2018-Jul-09 23:58N 44°08' E 028°39'0 0.0
2018-Jul-09 23:28N 44°08' E 028°39'0 0.0
2018-Jul-09 22:58N 44°08' E 028°39'0 0.0
2018-Jul-09 22:28N 44°08' E 028°39'0 0.0
2018-Jul-09 21:58N 44°08' E 028°39'0 0.0
2018-Jul-09 21:28N 44°08' E 028°39'0 0.0
2018-Jul-09 20:58N 44°08' E 028°39'0 0.0
2018-Jul-09 20:28N 44°08' E 028°39'0 0.0
2018-Jul-09 19:58N 44°08' E 028°39'0 0.0
2018-Jul-09 19:28N 44°08' E 028°39'0 0.0
2018-Jul-09 18:58N 44°08' E 028°39'0 0.0
2018-Jul-09 18:28N 44°08' E 028°39'0 0.0
2018-Jul-09 17:58N 44°08' E 028°39'0 0.0
2018-Jul-09 17:28N 44°08' E 028°39'0 0.0
2018-Jul-09 16:58N 44°08' E 028°39'0 0.0
2018-Jul-09 16:28N 44°08' E 028°39'0 0.0
2018-Jul-09 15:58N 44°08' E 028°39'0 0.0
2018-Jul-09 15:28N 44°08' E 028°39'0 0.0
2018-Jul-09 14:58N 44°08' E 028°39'0 0.0
2018-Jul-09 14:28N 44°08' E 028°39'0 0.0
2018-Jul-09 13:58N 44°08' E 028°39'0 0.0
2018-Jul-09 13:28N 44°08' E 028°39'0 0.0
2018-Jul-09 12:58N 44°08' E 028°39'0 0.0
2018-Jul-09 12:28N 44°08' E 028°39'0 0.0
2018-Jul-09 11:58N 44°08' E 028°39'0 0.0
2018-Jul-09 11:28N 44°08' E 028°39'0 0.0
2018-Jul-09 10:58N 44°08' E 028°39'0 0.0
2018-Jul-09 10:28N 44°08' E 028°39'0 0.0
2018-Jul-09 09:58N 44°08' E 028°39'0 0.0
2018-Jul-09 09:28N 44°08' E 028°39'0 0.0
2018-Jul-09 08:58N 44°08' E 028°39'0 0.0
2018-Jul-09 08:28N 44°08' E 028°39'0 0.0
2018-Jul-09 07:58N 44°08' E 028°39'0 0.0
2018-Jul-09 07:28N 44°08' E 028°39'0 0.0
2018-Jul-09 06:58N 44°08' E 028°39'0 0.0
2018-Jul-09 06:28N 44°08' E 028°39'0 0.0
2018-Jul-09 05:58N 44°08' E 028°39'0 0.0
2018-Jul-09 05:28N 44°08' E 028°39'0 0.0
2018-Jul-09 04:58N 44°08' E 028°39'0 0.0
2018-Jul-09 04:28N 44°08' E 028°39'0 0.0
2018-Jul-09 03:58N 44°08' E 028°39'0 0.0
2018-Jul-09 03:28N 44°08' E 028°39'0 0.0
2018-Jul-09 02:58N 44°08' E 028°39'0 0.0
2018-Jul-09 02:28N 44°08' E 028°39'0 0.0
2018-Jul-09 01:58N 44°08' E 028°39'0 0.0
2018-Jul-09 01:28N 44°08' E 028°39'0 0.0
2018-Jul-09 00:58N 44°08' E 028°39'0 0.0
2018-Jul-09 00:28N 44°08' E 028°39'0 0.0
2018-Jul-08 23:58N 44°08' E 028°39'0 0.0
2018-Jul-08 23:28N 44°08' E 028°39'0 0.0
2018-Jul-08 22:58N 44°08' E 028°39'0 0.0
2018-Jul-08 22:28N 44°08' E 028°39'0 0.0
2018-Jul-08 21:52N 44°08' E 028°39'0 0.0
2018-Jul-08 21:28N 44°08' E 028°39'0 0.0
2018-Jul-08 20:58N 44°08' E 028°39'0 0.0
2018-Jul-08 20:28N 44°08' E 028°39'0 0.0
2018-Jul-08 19:58N 44°08' E 028°39'0 0.0
2018-Jul-08 19:28N 44°08' E 028°39'0 0.0
2018-Jul-08 18:58N 44°08' E 028°39'0 0.0
2018-Jul-08 18:28N 44°08' E 028°39'0 0.0
2018-Jul-08 17:58N 44°08' E 028°39'0 0.0
2018-Jul-08 17:25N 44°08' E 028°39'0 0.0
2018-Jul-08 16:58N 44°08' E 028°39'0 0.0
2018-Jul-08 16:28N 44°08' E 028°39'0 0.0
2018-Jul-08 15:58N 44°08' E 028°39'0 0.0
2018-Jul-08 15:28N 44°08' E 028°39'0 0.0
2018-Jul-08 14:58N 44°08' E 028°39'0 0.0
2018-Jul-08 14:28N 44°08' E 028°39'0 0.0
2018-Jul-08 13:58N 44°08' E 028°39'0 0.0
2018-Jul-08 13:28N 44°08' E 028°39'0 0.0
2018-Jul-08 12:58N 44°08' E 028°39'0 0.0
2018-Jul-08 12:28N 44°08' E 028°39'0 0.0
2018-Jul-08 11:58N 44°08' E 028°39'0 0.0
2018-Jul-08 11:28N 44°08' E 028°39'0 0.0
2018-Jul-08 10:58N 44°08' E 028°39'0 0.0
2018-Jul-08 10:28N 44°08' E 028°39'0 0.0
2018-Jul-08 09:58N 44°08' E 028°39'0 0.0
2018-Jul-08 09:28N 44°08' E 028°39'0 0.0
2018-Jul-08 08:58N 44°08' E 028°39'0 0.0
2018-Jul-08 08:28N 44°08' E 028°39'0 0.0
2018-Jul-08 07:58N 44°08' E 028°39'0 0.0
2018-Jul-08 07:28N 44°08' E 028°39'0 0.0
2018-Jul-08 06:58N 44°08' E 028°39'0 0.0
2018-Jul-08 06:28N 44°08' E 028°39'0 0.0
2018-Jul-08 05:58N 44°08' E 028°39'0 0.0
2018-Jul-08 05:28N 44°08' E 028°39'0 0.0
2018-Jul-08 04:58N 44°08' E 028°39'0 0.0
2018-Jul-08 04:28N 44°08' E 028°39'0 0.0
2018-Jul-08 03:58N 44°08' E 028°39'0 0.0
2018-Jul-08 03:28N 44°08' E 028°39'0 0.0
2018-Jul-08 02:58N 44°08' E 028°39'0 0.0
2018-Jul-08 02:28N 44°08' E 028°39'0 0.0
2018-Jul-08 01:55N 44°08' E 028°39'0 0.0
2018-Jul-08 01:28N 44°08' E 028°39'0 0.0
2018-Jul-08 00:58N 44°08' E 028°39'0 0.0
2018-Jul-08 00:28N 44°08' E 028°39'0 0.0
2018-Jul-07 23:58N 44°08' E 028°39'0 0.0
2018-Jul-07 23:28N 44°08' E 028°39'0 0.0
2018-Jul-07 22:58N 44°08' E 028°39'0 0.0
2018-Jul-07 22:28N 44°08' E 028°39'0 0.0
2018-Jul-07 21:58N 44°08' E 028°39'0 0.0
2018-Jul-07 21:28N 44°08' E 028°39'0 0.0
2018-Jul-07 20:58N 44°08' E 028°39'0 0.0
2018-Jul-07 20:28N 44°08' E 028°39'0 0.0
2018-Jul-07 19:58N 44°08' E 028°39'0 0.0
2018-Jul-07 19:28N 44°08' E 028°39'0 0.0
2018-Jul-07 18:58N 44°08' E 028°39'0 0.0
2018-Jul-07 18:28N 44°08' E 028°39'0 0.0
2018-Jul-07 17:58N 44°08' E 028°39'0 0.0
2018-Jul-07 17:28N 44°08' E 028°39'0 0.0
2018-Jul-07 16:59N 44°08' E 028°39'0 0.0
2018-Jul-07 16:28N 44°08' E 028°39'0 0.0
2018-Jul-07 15:58N 44°08' E 028°39'0 0.0
2018-Jul-07 15:28N 44°08' E 028°39'0 0.0
2018-Jul-07 14:58N 44°08' E 028°39'0 0.0
2018-Jul-07 14:28N 44°08' E 028°39'0 0.1
2018-Jul-07 13:58N 44°08' E 028°39'0 0.0
2018-Jul-07 13:28N 44°08' E 028°39'0 0.0
2018-Jul-07 12:58N 44°08' E 028°39'0 0.0
2018-Jul-07 12:25N 44°08' E 028°39'0 0.0
2018-Jul-07 11:58N 44°08' E 028°39'0 0.0
2018-Jul-07 11:28N 44°08' E 028°39'0 0.0
2018-Jul-07 10:58N 44°08' E 028°39'0 0.0
2018-Jul-07 10:28N 44°08' E 028°39'0 0.0
2018-Jul-07 09:58N 44°08' E 028°39'0 0.0
2018-Jul-07 09:28N 44°08' E 028°39'0 0.0
2018-Jul-07 08:58N 44°08' E 028°39'0 0.0
2018-Jul-07 08:28N 44°08' E 028°39'0 0.0
2018-Jul-07 07:58N 44°08' E 028°39'0 0.0
2018-Jul-07 07:28N 44°08' E 028°39'0 0.0
2018-Jul-07 06:58N 44°08' E 028°39'0 0.0
2018-Jul-07 06:28N 44°08' E 028°39'0 0.0
2018-Jul-07 05:58N 44°08' E 028°39'0 0.0
2018-Jul-07 05:19N 44°08' E 028°39'0 0.0
2018-Jul-07 04:58N 44°08' E 028°39'0 0.0
2018-Jul-07 04:28N 44°08' E 028°39'0 0.0
2018-Jul-07 03:58N 44°08' E 028°39'0 0.0
2018-Jul-07 03:28N 44°08' E 028°39'0 0.0
2018-Jul-07 02:58N 44°08' E 028°39'0 0.0
2018-Jul-07 02:28N 44°08' E 028°39'0 0.0
2018-Jul-07 01:58N 44°08' E 028°39'0 0.0
2018-Jul-07 01:28N 44°08' E 028°39'0 0.0
2018-Jul-07 00:58N 44°08' E 028°39'0 0.0
2018-Jul-07 00:28N 44°08' E 028°39'0 0.0
2018-Jul-06 23:58N 44°08' E 028°39'0 0.0
2018-Jul-06 23:25N 44°08' E 028°39'0 0.0
2018-Jul-06 22:58N 44°08' E 028°39'0 0.0
2018-Jul-06 22:28N 44°08' E 028°39'0 0.0
2018-Jul-06 21:58N 44°08' E 028°39'0 0.0
2018-Jul-06 21:28N 44°08' E 028°39'0 0.0
2018-Jul-06 20:58N 44°08' E 028°39'0 0.0
2018-Jul-06 20:28N 44°08' E 028°39'0 0.0
2018-Jul-06 19:58N 44°08' E 028°39'0 0.0
2018-Jul-06 19:28N 44°08' E 028°39'0 0.0
2018-Jul-06 18:58N 44°08' E 028°39'0 0.0
2018-Jul-06 18:28N 44°08' E 028°39'0 0.0
2018-Jul-06 17:58N 44°08' E 028°39'0 0.0
2018-Jul-06 17:28N 44°08' E 028°39'0 0.0
2018-Jul-06 16:58N 44°08' E 028°39'0 0.0
2018-Jul-06 16:25N 44°08' E 028°39'0 0.0
2018-Jul-06 15:59N 44°08' E 028°39'0 0.0
2018-Jul-06 15:28N 44°08' E 028°39'0 0.0
2018-Jul-06 14:58N 44°08' E 028°39'0 0.0
2018-Jul-06 14:28N 44°08' E 028°39'0 0.0
2018-Jul-06 13:58N 44°08' E 028°39'0 0.0
2018-Jul-06 13:28N 44°08' E 028°39'0 0.1
2018-Jul-06 12:58N 44°08' E 028°39'0 0.0
2018-Jul-06 12:28N 44°08' E 028°39'0 0.0
2018-Jul-06 11:58N 44°08' E 028°39'0 0.0
2018-Jul-06 11:28N 44°08' E 028°39'0 0.0
2018-Jul-06 10:58N 44°08' E 028°39'0 0.0
2018-Jul-06 10:28N 44°08' E 028°39'0 0.0
2018-Jul-06 09:58N 44°08' E 028°39'0 0.0
2018-Jul-06 09:28N 44°08' E 028°39'0 0.0
2018-Jul-06 08:58N 44°08' E 028°39'0 0.0
2018-Jul-06 08:28N 44°08' E 028°39'0 0.0
2018-Jul-06 07:58N 44°08' E 028°39'0 0.0
2018-Jul-06 07:28N 44°08' E 028°39'0 0.0
2018-Jul-06 06:58N 44°08' E 028°39'0 0.0
2018-Jul-06 06:28N 44°08' E 028°39'0 0.0
2018-Jul-06 05:58N 44°08' E 028°39'0 0.0
2018-Jul-06 05:28N 44°08' E 028°39'0 0.0
2018-Jul-06 04:58N 44°08' E 028°39'0 0.0
2018-Jul-06 04:28N 44°08' E 028°39'0 0.0
2018-Jul-06 03:58N 44°08' E 028°39'0 0.0
2018-Jul-06 03:28N 44°08' E 028°39'0 0.0
2018-Jul-06 02:58N 44°08' E 028°39'0 0.0
2018-Jul-06 02:28N 44°08' E 028°39'  

Dump ship's entire track history